Time;durP1;ratioP1;P1;durP2;ratioP2;P2;SDS_P1;SDS_P2;PMS_P1;PMS_P2;Temp;Humidity;BMP_temperature;BMP_pressure;BME280_temperature;BME280_humidity;BME280_pressure;Samples;Min_cycle;Max_cycle;Signal;HPM_P1;HPM_P2
2022/11/12 00:00:24;;;;;;;0.20;0.20;;;11.70;99.90;;;;;;4950837;28;20226;-84
2022/11/12 00:02:50;;;;;;;0.20;0.20;;;11.60;99.90;;;;;;4937878;29;20329;-84
2022/11/12 00:05:15;;;;;;;0.13;0.13;;;11.70;99.90;;;;;;4946991;28;20194;-84
2022/11/12 00:07:41;;;;;;;0.20;0.20;;;11.60;99.90;;;;;;4942604;28;20206;-83
2022/11/12 00:10:07;;;;;;;0.20;0.20;;;11.60;99.90;;;;;;4952393;28;20195;-84
2022/11/12 00:12:33;;;;;;;0.20;0.20;;;11.60;99.90;;;;;;4945613;28;20198;-85
2022/11/12 00:14:58;;;;;;;0.20;0.20;;;11.70;99.90;;;;;;4943976;28;21007;-83
2022/11/12 00:17:24;;;;;;;0.20;0.20;;;11.60;99.90;;;;;;4949096;28;20199;-83
2022/11/12 00:19:50;;;;;;;0.20;0.20;;;11.60;99.90;;;;;;4957616;28;20273;-84
2022/11/12 00:22:16;;;;;;;0.10;0.10;;;11.50;99.90;;;;;;4949733;28;20650;-82
2022/11/12 00:24:41;;;;;;;0.20;0.20;;;11.50;99.90;;;;;;4941733;29;20190;-85
2022/11/12 00:27:06;;;;;;;0.20;0.20;;;11.50;99.90;;;;;;4949545;28;20195;-84
2022/11/12 00:29:32;;;;;;;0.20;0.20;;;11.40;99.90;;;;;;4954823;28;20964;-82
2022/11/12 00:31:58;;;;;;;0.20;0.20;;;11.40;99.90;;;;;;4956769;28;20199;-85
2022/11/12 00:34:23;;;;;;;0.20;0.20;;;11.40;99.90;;;;;;4949070;29;20294;-82
2022/11/12 00:36:49;;;;;;;0.20;0.20;;;11.30;99.90;;;;;;4952641;28;20199;-84
2022/11/12 00:39:14;;;;;;;0.20;0.20;;;11.30;99.90;;;;;;4950462;28;20264;-85
2022/11/12 00:41:40;;;;;;;0.20;0.20;;;11.30;99.90;;;;;;4947927;28;20253;-83
2022/11/12 00:44:05;;;;;;;0.20;0.20;;;11.30;99.90;;;;;;4959164;28;20199;-84
2022/11/12 00:46:31;;;;;;;0.20;0.20;;;11.30;99.90;;;;;;4960883;28;20638;-85
2022/11/12 00:48:56;;;;;;;0.20;0.20;;;11.30;99.90;;;;;;4967232;28;20270;-82
2022/11/12 00:51:22;;;;;;;0.20;0.20;;;11.20;99.90;;;;;;4945846;28;20198;-84
2022/11/12 00:53:48;;;;;;;0.20;0.20;;;11.30;99.90;;;;;;4945600;28;20659;-84
2022/11/12 00:56:14;;;;;;;0.20;0.20;;;11.20;99.90;;;;;;4947875;28;20214;-82
2022/11/12 00:58:39;;;;;;;0.20;0.20;;;11.20;99.90;;;;;;4946687;28;20458;-85
2022/11/12 01:01:10;;;;;;;0.20;0.20;;;11.30;99.90;;;;;;4941199;28;20191;-84
2022/11/12 01:03:37;;;;;;;0.20;0.20;;;11.20;99.90;;;;;;4946924;28;20191;-85
2022/11/12 01:06:09;;;;;;;0.20;0.20;;;11.20;99.90;;;;;;4948091;28;20529;-84
2022/11/12 01:08:34;;;;;;;0.20;0.20;;;11.20;99.90;;;;;;4949503;28;20481;-84
2022/11/12 01:11:07;;;;;;;0.20;0.20;;;11.20;99.90;;;;;;4944646;28;21072;-84
2022/11/12 01:13:32;;;;;;;0.20;0.20;;;11.20;99.90;;;;;;4952010;28;20187;-85
2022/11/12 01:15:58;;;;;;;0.20;0.20;;;11.10;99.90;;;;;;4949598;28;21170;-84
2022/11/12 01:18:24;;;;;;;0.20;0.20;;;11.20;99.90;;;;;;4952720;28;20198;-83
2022/11/12 01:20:49;;;;;;;0.20;0.20;;;11.20;99.90;;;;;;4957354;28;20883;-84
2022/11/12 01:23:14;;;;;;;0.20;0.20;;;11.10;99.90;;;;;;4946462;28;20234;-84
2022/11/12 01:25:40;;;;;;;0.20;0.20;;;11.10;99.90;;;;;;4949537;28;20773;-83
2022/11/12 01:28:05;;;;;;;0.20;0.20;;;11.10;99.90;;;;;;4945116;28;20198;-84
2022/11/12 01:30:31;;;;;;;0.20;0.20;;;11.10;99.90;;;;;;4949201;28;20194;-84
2022/11/12 01:32:56;;;;;;;0.20;0.20;;;11.10;99.90;;;;;;4952335;28;20187;-84
2022/11/12 01:35:22;;;;;;;0.20;0.20;;;11.10;99.90;;;;;;4948961;28;20653;-84
2022/11/12 01:37:47;;;;;;;0.20;0.20;;;11.10;99.90;;;;;;4947846;28;20194;-85
2022/11/12 01:40:13;;;;;;;0.20;0.20;;;11.10;99.90;;;;;;4946738;28;20668;-84
2022/11/12 01:42:39;;;;;;;0.20;0.20;;;11.10;99.90;;;;;;4951162;28;20764;-86
2022/11/12 01:45:14;;;;;;;0.20;0.20;;;11.10;99.90;;;;;;4949420;28;20481;-85
2022/11/12 01:47:41;;;;;;;0.20;0.20;;;11.10;99.90;;;;;;4945930;28;20466;-84
2022/11/12 01:50:31;;;;;;;0.20;0.20;;;11.10;99.90;;;;;;4948385;28;20456;-85
2022/11/12 01:53:07;;;;;;;0.20;0.20;;;11.00;99.90;;;;;;4960255;28;20962;-85
2022/11/12 01:55:36;;;;;;;0.20;0.20;;;11.10;99.90;;;;;;4951793;28;20451;-85
2022/11/12 01:58:12;;;;;;;0.20;0.20;;;11.00;99.90;;;;;;4946469;28;21028;-84
2022/11/12 02:00:40;;;;;;;0.20;0.20;;;11.00;99.90;;;;;;4945994;28;20454;-85
2022/11/12 02:03:12;;;;;;;0.20;0.20;;;11.00;99.90;;;;;;4950753;28;20534;-83
2022/11/12 02:05:39;;;;;;;0.20;0.20;;;11.00;99.90;;;;;;4950877;28;20433;-84
2022/11/12 02:08:06;;;;;;;0.20;0.20;;;11.00;99.90;;;;;;4950545;28;20545;-85
2022/11/12 02:10:33;;;;;;;0.20;0.20;;;11.00;99.90;;;;;;4943436;28;20446;-84
2022/11/12 02:15:44;;;;;;;0.20;0.20;;;10.90;99.90;;;;;;4945648;28;20542;-84
2022/11/12 02:18:10;;;;;;;0.20;0.20;;;11.00;99.90;;;;;;4948308;28;20885;-84
2022/11/12 02:20:37;;;;;;;0.20;0.20;;;11.00;99.90;;;;;;4945657;28;20193;-83
2022/11/12 02:23:05;;;;;;;0.20;0.20;;;11.00;99.90;;;;;;4947381;29;20328;-84
2022/11/12 02:25:30;;;;;;;0.20;0.20;;;11.00;99.90;;;;;;4947028;28;20811;-83
2022/11/12 02:27:58;;;;;;;0.20;0.20;;;11.00;99.90;;;;;;4948363;29;20450;-85
2022/11/12 02:30:42;;;;;;;0.20;0.20;;;11.00;99.90;;;;;;4948119;28;20482;-84
2022/11/12 02:33:07;;;;;;;0.20;0.20;;;11.00;99.90;;;;;;4949763;28;20958;-84
2022/11/12 02:35:33;;;;;;;0.20;0.20;;;11.00;99.90;;;;;;4952137;28;20492;-84
2022/11/12 02:37:59;;;;;;;0.20;0.20;;;11.00;99.90;;;;;;4942920;28;20227;-84
2022/11/12 02:40:24;;;;;;;0.20;0.20;;;11.00;99.90;;;;;;4946322;28;20186;-84
2022/11/12 02:42:50;;;;;;;0.20;0.20;;;11.00;99.90;;;;;;4946713;29;20268;-84
2022/11/12 02:45:16;;;;;;;0.20;0.20;;;11.00;99.90;;;;;;4946146;28;20194;-84
2022/11/12 02:47:41;;;;;;;0.20;0.20;;;11.00;99.90;;;;;;4964060;28;20198;-85
2022/11/12 02:50:07;;;;;;;0.20;0.20;;;11.00;99.90;;;;;;4950213;28;20460;-85
2022/11/12 02:52:33;;;;;;;0.20;0.20;;;11.00;99.90;;;;;;4946101;28;20619;-84
2022/11/12 02:55:00;;;;;;;0.20;0.20;;;11.00;99.90;;;;;;4950278;28;20921;-84
2022/11/12 02:57:28;;;;;;;0.20;0.20;;;10.90;99.90;;;;;;4942624;28;20217;-84
2022/11/12 02:59:53;;;;;;;0.20;0.20;;;11.00;99.90;;;;;;4938262;28;20445;-83
2022/11/12 03:02:19;;;;;;;0.10;0.10;;;11.00;99.90;;;;;;4946742;28;20474;-85
2022/11/12 03:04:44;;;;;;;0.20;0.20;;;11.00;99.90;;;;;;4949601;28;20218;-85
2022/11/12 03:07:10;;;;;;;0.20;0.20;;;11.00;99.90;;;;;;4948940;28;20273;-85
2022/11/12 03:09:35;;;;;;;0.20;0.20;;;11.00;99.90;;;;;;4944260;28;20919;-82
2022/11/12 03:12:01;;;;;;;0.20;0.20;;;10.90;99.90;;;;;;4948260;28;20187;-84
2022/11/12 03:14:27;;;;;;;0.20;0.20;;;10.90;99.90;;;;;;4951289;28;20596;-84
2022/11/12 03:16:52;;;;;;;0.20;0.20;;;10.90;99.90;;;;;;4947449;28;20658;-82
2022/11/12 03:19:18;;;;;;;0.20;0.20;;;10.90;99.90;;;;;;4964361;28;20294;-84
2022/11/12 03:21:43;;;;;;;0.20;0.20;;;10.90;99.90;;;;;;4948237;28;20578;-84
2022/11/12 03:24:08;;;;;;;0.20;0.20;;;10.90;99.90;;;;;;4948496;28;20285;-84
2022/11/12 03:26:34;;;;;;;0.20;0.20;;;10.90;99.90;;;;;;4950916;29;20331;-85
2022/11/12 03:28:59;;;;;;;0.20;0.20;;;10.90;99.90;;;;;;4949789;28;20195;-84
2022/11/12 03:31:25;;;;;;;0.20;0.20;;;10.90;99.90;;;;;;4965441;28;20249;-84
2022/11/12 03:33:50;;;;;;;0.20;0.20;;;10.90;99.90;;;;;;4953132;28;20730;-85
2022/11/12 03:36:16;;;;;;;0.20;0.20;;;10.90;99.90;;;;;;4949523;28;20187;-84
2022/11/12 03:38:41;;;;;;;0.20;0.20;;;10.90;99.90;;;;;;4953352;28;20227;-84
2022/11/12 03:41:07;;;;;;;0.20;0.20;;;10.90;99.90;;;;;;4951107;29;20286;-84
2022/11/12 03:43:32;;;;;;;0.20;0.20;;;10.90;99.90;;;;;;4948338;28;20645;-83
2022/11/12 03:45:58;;;;;;;0.20;0.20;;;10.90;99.90;;;;;;4948049;28;20297;-84
2022/11/12 03:48:23;;;;;;;0.20;0.20;;;10.90;99.90;;;;;;4951678;29;20191;-84
2022/11/12 03:50:49;;;;;;;0.20;0.20;;;11.00;99.90;;;;;;4950793;28;20244;-83
2022/11/12 03:53:14;;;;;;;0.20;0.20;;;11.00;99.90;;;;;;4950885;29;20203;-85
2022/11/12 03:55:40;;;;;;;0.20;0.20;;;10.90;99.90;;;;;;4950908;29;20197;-84
2022/11/12 03:58:06;;;;;;;0.20;0.20;;;11.00;99.90;;;;;;4950000;29;20237;-85
2022/11/12 04:00:31;;;;;;;0.20;0.20;;;11.00;99.90;;;;;;4951158;28;20723;-84
2022/11/12 04:02:57;;;;;;;0.20;0.20;;;11.00;99.90;;;;;;4948822;28;20329;-86
2022/11/12 04:08:35;;;;;;;0.20;0.20;;;11.00;99.90;;;;;;4955610;28;20453;-84
2022/11/12 04:11:06;;;;;;;0.20;0.20;;;11.00;99.90;;;;;;4950308;28;20445;-85
2022/11/12 04:13:32;;;;;;;0.20;0.20;;;11.00;99.90;;;;;;4947080;28;20545;-84
2022/11/12 04:21:53;;;;;;;0.20;0.20;;;11.00;99.90;;;;;;4948858;28;20527;-84
2022/11/12 04:27:15;;;;;;;0.20;0.20;;;11.00;99.90;;;;;;4947900;28;20862;-84
2022/11/12 04:32:27;;;;;;;0.20;0.20;;;11.10;99.90;;;;;;4954402;28;20449;-84
2022/11/12 04:34:53;;;;;;;0.20;0.20;;;11.10;99.90;;;;;;4950550;28;20461;-84
2022/11/12 04:37:19;;;;;;;0.20;0.20;;;11.10;99.90;;;;;;4949196;28;20442;-84
2022/11/12 04:39:44;;;;;;;0.10;0.10;;;11.00;99.90;;;;;;4953578;28;20317;-84
2022/11/12 04:45:04;;;;;;;0.20;0.20;;;11.00;99.90;;;;;;4949579;28;20207;-84
2022/11/12 04:47:32;;;;;;;0.20;0.20;;;11.00;99.90;;;;;;4945948;28;20442;-85
2022/11/12 04:49:58;;;;;;;0.20;0.20;;;11.00;99.90;;;;;;4945641;28;20441;-84
2022/11/12 04:52:24;;;;;;;0.20;0.20;;;11.00;99.90;;;;;;4949564;29;20446;-84
2022/11/12 04:54:50;;;;;;;0.20;0.20;;;11.00;99.90;;;;;;4953006;28;20534;-84
2022/11/12 04:57:16;;;;;;;0.20;0.20;;;11.00;99.90;;;;;;4953259;28;20463;-85
2022/11/12 04:59:41;;;;;;;0.20;0.20;;;11.00;99.90;;;;;;4951748;28;20461;-84
2022/11/12 05:02:07;;;;;;;0.20;0.20;;;11.00;99.90;;;;;;4952940;28;20226;-84
2022/11/12 05:04:32;;;;;;;0.10;0.10;;;11.00;99.90;;;;;;4949987;28;20722;-83
2022/11/12 05:06:58;;;;;;;0.20;0.20;;;11.00;99.90;;;;;;4954197;28;20229;-84
2022/11/12 05:09:26;;;;;;;0.20;0.20;;;11.00;99.90;;;;;;4950083;28;20534;-84
2022/11/12 05:11:54;;;;;;;0.20;0.20;;;11.00;99.90;;;;;;4946065;28;20196;-84
2022/11/12 05:14:20;;;;;;;0.20;0.20;;;11.00;99.90;;;;;;4955659;28;21331;-83
2022/11/12 05:16:45;;;;;;;0.20;0.20;;;10.90;99.90;;;;;;4949851;28;21126;-85
2022/11/12 05:19:11;;;;;;;0.20;0.20;;;10.90;99.90;;;;;;4949552;29;20458;-84
2022/11/12 05:24:21;;;;;;;0.20;0.20;;;10.90;99.90;;;;;;4948753;28;20233;-84
2022/11/12 05:26:46;;;;;;;0.20;0.20;;;10.80;99.90;;;;;;4935918;29;20446;-84
2022/11/12 05:29:12;;;;;;;0.20;0.20;;;10.90;99.90;;;;;;4951932;28;20249;-85
2022/11/12 05:31:38;;;;;;;0.20;0.20;;;10.90;99.90;;;;;;4948934;29;20282;-85
2022/11/12 05:34:03;;;;;;;0.20;0.20;;;10.90;99.90;;;;;;4947281;29;20199;-84
2022/11/12 05:36:29;;;;;;;0.20;0.20;;;10.80;99.90;;;;;;4955884;28;20931;-84
2022/11/12 05:38:55;;;;;;;0.20;0.20;;;10.80;99.90;;;;;;4946804;28;20281;-84
2022/11/12 05:41:20;;;;;;;0.20;0.20;;;10.80;99.90;;;;;;4956705;28;20827;-83
2022/11/12 05:43:46;;;;;;;0.20;0.20;;;10.80;99.90;;;;;;4944705;29;20977;-84
2022/11/12 05:46:11;;;;;;;0.20;0.20;;;10.80;99.90;;;;;;4951262;28;20207;-84
2022/11/12 05:48:37;;;;;;;0.20;0.20;;;10.80;99.90;;;;;;4949234;28;20202;-84
2022/11/12 05:51:02;;;;;;;0.20;0.20;;;10.80;99.90;;;;;;4952104;28;20866;-84
2022/11/12 05:53:28;;;;;;;0.20;0.20;;;10.80;99.90;;;;;;4953106;28;20211;-84
2022/11/12 05:55:59;;;;;;;0.20;0.20;;;10.70;99.90;;;;;;4947158;29;20930;-84
2022/11/12 05:58:24;;;;;;;0.20;0.20;;;10.70;99.90;;;;;;4948997;28;20214;-84
2022/11/12 06:00:50;;;;;;;0.20;0.20;;;10.70;99.90;;;;;;4947697;28;21183;-83
2022/11/12 06:03:15;;;;;;;0.10;0.10;;;10.70;99.90;;;;;;4944781;28;20241;-85
2022/11/12 06:05:41;;;;;;;0.20;0.20;;;10.60;99.90;;;;;;4944554;28;20199;-84
2022/11/12 06:08:06;;;;;;;0.20;0.20;;;10.60;99.90;;;;;;4955658;28;20186;-85
2022/11/12 06:10:32;;;;;;;0.20;0.20;;;10.60;99.90;;;;;;4956630;28;20200;-88
2022/11/12 06:12:58;;;;;;;0.20;0.20;;;10.60;99.90;;;;;;4957924;28;20194;-85
2022/11/12 06:15:25;;;;;;;0.20;0.20;;;10.60;99.90;;;;;;4944471;28;20203;-85
2022/11/12 06:17:54;;;;;;;0.20;0.20;;;10.60;99.90;;;;;;4948898;28;20190;-85
2022/11/12 06:20:21;;;;;;;0.20;0.20;;;10.60;99.90;;;;;;4953928;28;21083;-85
2022/11/12 06:22:46;;;;;;;0.20;0.20;;;10.60;99.90;;;;;;4945626;28;20492;-85
2022/11/12 06:25:12;;;;;;;0.20;0.20;;;10.60;99.90;;;;;;4952509;28;20450;-85
2022/11/12 06:27:38;;;;;;;0.20;0.20;;;10.50;99.90;;;;;;4948266;28;20241;-86
2022/11/12 06:30:05;;;;;;;0.20;0.20;;;10.50;99.90;;;;;;4943130;28;20194;-85
2022/11/12 06:32:31;;;;;;;0.20;0.20;;;10.50;99.90;;;;;;4944263;28;20547;-86
2022/11/12 06:34:56;;;;;;;0.20;0.20;;;10.50;99.90;;;;;;4944681;28;20541;-86
2022/11/12 06:37:22;;;;;;;0.20;0.20;;;10.50;99.90;;;;;;4977228;28;20179;-88
2022/11/12 06:39:48;;;;;;;0.20;0.20;;;10.40;99.90;;;;;;4947732;28;20230;-84
2022/11/12 06:42:14;;;;;;;0.20;0.20;;;10.40;99.90;;;;;;4940582;28;20230;-84
2022/11/12 06:44:39;;;;;;;0.20;0.20;;;10.40;99.90;;;;;;4945511;29;20446;-85
2022/11/12 06:47:05;;;;;;;0.20;0.20;;;10.40;99.90;;;;;;4945608;28;20843;-86
2022/11/12 06:49:31;;;;;;;0.20;0.20;;;10.40;99.90;;;;;;4962573;28;20210;-85
2022/11/12 06:51:56;;;;;;;0.20;0.20;;;10.40;99.90;;;;;;4952614;28;20210;-86
2022/11/12 06:54:22;;;;;;;0.20;0.20;;;10.30;99.90;;;;;;4950489;28;20220;-85
2022/11/12 06:56:47;;;;;;;0.20;0.20;;;10.40;99.90;;;;;;4949644;28;20576;-87
2022/11/12 06:59:13;;;;;;;0.20;0.20;;;10.40;99.90;;;;;;4947290;28;20650;-86
2022/11/12 07:01:38;;;;;;;0.20;0.20;;;10.40;99.90;;;;;;4949164;28;20218;-85
2022/11/12 07:04:04;;;;;;;0.20;0.20;;;10.40;99.90;;;;;;4945410;28;20260;-86
2022/11/12 07:06:29;;;;;;;0.20;0.20;;;10.30;99.90;;;;;;4939203;28;20569;-85
2022/11/12 07:08:55;;;;;;;0.20;0.20;;;10.30;99.90;;;;;;4945379;28;20198;-86
2022/11/12 07:11:21;;;;;;;0.20;0.20;;;10.30;99.90;;;;;;4956825;28;20195;-86
2022/11/12 07:13:47;;;;;;;0.20;0.20;;;10.30;99.90;;;;;;4947569;28;20187;-86
2022/11/12 07:16:17;;;;;;;0.20;0.20;;;10.40;99.90;;;;;;4947961;28;20183;-86
2022/11/12 07:18:44;;;;;;;0.20;0.20;;;10.40;99.90;;;;;;4951349;28;20457;-86
2022/11/12 07:21:12;;;;;;;0.20;0.20;;;10.40;99.90;;;;;;4949187;28;20454;-86
2022/11/12 07:23:38;;;;;;;0.20;0.20;;;10.30;99.90;;;;;;4947527;28;20572;-87
2022/11/12 07:26:05;;;;;;;0.13;0.13;;;10.30;99.90;;;;;;4946198;28;20457;-86
2022/11/12 07:28:31;;;;;;;0.20;0.20;;;10.30;99.90;;;;;;4946608;29;20958;-86
2022/11/12 07:31:02;;;;;;;0.20;0.20;;;10.30;99.90;;;;;;4958568;28;20443;-86
2022/11/12 07:33:28;;;;;;;0.20;0.20;;;10.30;99.90;;;;;;4945746;29;20515;-87
2022/11/12 07:35:59;;;;;;;0.20;0.20;;;10.30;99.90;;;;;;4948338;28;20471;-87
2022/11/12 07:38:27;;;;;;;0.20;0.20;;;10.20;99.90;;;;;;4941231;28;20500;-86
2022/11/12 07:41:09;;;;;;;0.20;0.20;;;10.20;99.90;;;;;;4944090;28;20455;-84
2022/11/12 07:43:36;;;;;;;0.20;0.20;;;10.20;99.90;;;;;;4944035;28;20496;-85
2022/11/12 07:46:07;;;;;;;0.20;0.20;;;10.20;99.90;;;;;;4949978;28;20462;-85
2022/11/12 07:48:33;;;;;;;0.20;0.20;;;10.20;99.90;;;;;;4942540;29;20458;-84
2022/11/12 07:51:10;;;;;;;0.10;0.10;;;10.20;99.90;;;;;;4941577;28;20887;-84
2022/11/12 07:53:35;;;;;;;0.20;0.20;;;10.20;99.90;;;;;;4948963;28;20205;-84
2022/11/12 07:56:03;;;;;;;0.20;0.20;;;10.20;99.90;;;;;;4936679;28;20475;-84
2022/11/12 07:58:31;;;;;;;0.20;0.20;;;10.20;99.90;;;;;;4940258;28;20186;-84
2022/11/12 08:00:57;;;;;;;0.20;0.20;;;10.30;99.90;;;;;;4940718;28;20477;-84
2022/11/12 08:03:23;;;;;;;0.20;0.20;;;10.20;99.90;;;;;;4955572;28;20478;-84
2022/11/12 08:05:49;;;;;;;0.20;0.20;;;10.30;99.90;;;;;;4953155;28;20461;-84
2022/11/12 08:08:15;;;;;;;0.20;0.20;;;10.30;99.90;;;;;;4956627;28;20655;-83
2022/11/12 08:10:40;;;;;;;0.20;0.20;;;10.30;99.90;;;;;;4953904;28;20513;-83
2022/11/12 08:13:06;;;;;;;0.20;0.20;;;10.30;99.90;;;;;;4947100;28;20217;-83
2022/11/12 08:15:31;;;;;;;0.20;0.20;;;10.30;99.90;;;;;;4948494;28;20199;-83
2022/11/12 08:17:57;;;;;;;0.20;0.20;;;10.30;99.90;;;;;;4943101;28;20198;-83
2022/11/12 08:20:22;;;;;;;0.20;0.20;;;10.30;99.90;;;;;;4960759;28;20195;-83
2022/11/12 08:22:48;;;;;;;0.20;0.20;;;10.30;99.90;;;;;;4951905;28;20223;-83
2022/11/12 08:25:14;;;;;;;0.20;0.20;;;10.30;99.90;;;;;;4948116;28;20270;-83
2022/11/12 08:27:39;;;;;;;0.20;0.20;;;10.30;99.90;;;;;;4946837;28;20289;-83
2022/11/12 08:30:06;;;;;;;0.20;0.20;;;10.40;99.90;;;;;;4954956;28;20191;-83
2022/11/12 08:32:31;;;;;;;0.20;0.20;;;10.40;99.90;;;;;;4950921;28;20190;-84
2022/11/12 08:34:57;;;;;;;0.20;0.20;;;10.40;99.90;;;;;;4955964;28;20439;-84
2022/11/12 08:37:22;;;;;;;0.20;0.20;;;10.30;99.90;;;;;;4957812;28;20197;-85
2022/11/12 08:39:48;;;;;;;0.20;0.20;;;10.30;99.90;;;;;;4953318;28;20653;-85
2022/11/12 08:42:13;;;;;;;0.20;0.20;;;10.40;99.90;;;;;;4949295;29;20222;-86
2022/11/12 08:44:39;;;;;;;0.20;0.20;;;10.30;99.90;;;;;;4953550;28;20187;-86
2022/11/12 08:47:04;;;;;;;0.20;0.20;;;10.40;99.90;;;;;;4957130;28;20694;-85
2022/11/12 08:49:30;;;;;;;0.20;0.20;;;10.30;99.90;;;;;;4953949;28;20551;-86
2022/11/12 08:51:56;;;;;;;0.20;0.20;;;10.40;99.90;;;;;;4948519;28;20218;-85
2022/11/12 08:54:22;;;;;;;0.20;0.20;;;10.40;99.90;;;;;;4954439;28;20687;-85
2022/11/12 08:56:48;;;;;;;0.20;0.20;;;10.50;99.90;;;;;;4953392;28;20451;-86
2022/11/12 08:59:13;;;;;;;0.20;0.20;;;10.60;99.90;;;;;;4953409;28;20458;-85
2022/11/12 09:01:39;;;;;;;0.20;0.20;;;10.60;99.90;;;;;;4947861;28;20265;-86
2022/11/12 09:04:04;;;;;;;0.20;0.20;;;10.60;99.90;;;;;;4954583;28;20201;-87
2022/11/12 09:06:30;;;;;;;0.20;0.20;;;10.50;99.90;;;;;;4952768;28;20214;-87
2022/11/12 09:08:55;;;;;;;0.20;0.20;;;10.60;99.90;;;;;;4944493;28;20575;-86
2022/11/12 09:11:21;;;;;;;0.20;0.20;;;10.60;99.90;;;;;;4956431;28;20194;-86
2022/11/12 09:13:46;;;;;;;0.20;0.20;;;10.60;99.90;;;;;;4953628;28;20183;-86
2022/11/12 09:16:12;;;;;;;0.20;0.20;;;10.70;99.90;;;;;;4950472;28;20210;-84
2022/11/12 09:18:38;;;;;;;0.20;0.20;;;10.60;99.90;;;;;;4952607;28;20994;-86
2022/11/12 09:21:06;;;;;;;0.20;0.20;;;10.50;99.90;;;;;;4948417;28;20212;-86
2022/11/12 09:23:34;;;;;;;0.20;0.20;;;10.60;99.90;;;;;;4947371;28;20946;-84
2022/11/12 09:26:00;;;;;;;0.20;0.20;;;10.60;99.90;;;;;;4948186;28;20553;-85
2022/11/12 09:28:26;;;;;;;0.20;0.20;;;10.70;99.90;;;;;;4947066;28;20508;-85
2022/11/12 09:30:53;;;;;;;0.20;0.20;;;10.70;99.90;;;;;;4949686;29;20895;-86
2022/11/12 09:33:23;;;;;;;0.20;0.20;;;10.70;99.90;;;;;;4961675;28;20273;-85
2022/11/12 09:35:49;;;;;;;0.20;0.20;;;10.70;99.90;;;;;;5012435;28;20450;-84
2022/11/12 09:38:16;;;;;;;0.20;0.20;;;10.70;99.90;;;;;;4951662;28;20487;-86
2022/11/12 09:40:51;;;;;;;0.20;0.20;;;10.80;99.90;;;;;;4946033;28;20461;-86
2022/11/12 09:43:30;;;;;;;0.10;0.10;;;10.80;99.90;;;;;;4960744;28;21025;-85
2022/11/12 09:46:22;;;;;;;0.20;0.20;;;10.90;99.90;;;;;;4950457;28;20446;-86
2022/11/12 09:48:57;;;;;;;0.20;0.20;;;10.80;99.90;;;;;;4958034;28;20919;-91
2022/11/12 09:51:32;;;;;;;0.20;0.20;;;10.80;99.90;;;;;;4947774;28;20450;-89
2022/11/12 09:54:03;;;;;;;0.20;0.20;;;10.80;99.90;;;;;;4955086;28;20491;-88
2022/11/12 09:56:29;;;;;;;0.20;0.20;;;10.80;99.90;;;;;;4956587;28;20787;-89
2022/11/12 09:58:54;;;;;;;0.20;0.20;;;10.90;99.90;;;;;;4945068;28;20492;-88
2022/11/12 10:01:38;;;;;;;0.20;0.20;;;10.90;99.90;;;;;;4958262;28;20191;-88
2022/11/12 10:04:26;;;;;;;0.17;0.17;;;11.00;99.90;;;;;;4949961;29;20194;-88
2022/11/12 10:07:11;;;;;;;0.20;0.20;;;11.00;99.90;;;;;;4937960;28;20544;-88
2022/11/12 10:10:03;;;;;;;0.20;0.20;;;11.00;99.90;;;;;;4947416;28;20446;-93
2022/11/12 10:13:03;;;;;;;0.20;0.20;;;11.00;99.90;;;;;;4950880;28;20433;-90
2022/11/12 10:18:53;;;;;;;0.20;0.20;;;11.00;99.90;;;;;;4948916;28;20490;-93
2022/11/12 10:21:28;;;;;;;0.20;0.20;;;11.00;99.90;;;;;;4950629;28;20557;-93
2022/11/12 10:23:54;;;;;;;0.20;0.20;;;11.00;99.90;;;;;;4948697;29;20466;-92
2022/11/12 10:26:21;;;;;;;0.20;0.20;;;11.00;99.90;;;;;;4949145;28;20469;-91
2022/11/12 10:28:55;;;;;;;0.20;0.20;;;11.00;99.90;;;;;;4958222;28;20274;-91
2022/11/12 10:31:20;;;;;;;0.20;0.20;;;11.00;99.90;;;;;;4945792;28;20969;-87
2022/11/12 10:33:46;;;;;;;0.20;0.20;;;11.00;99.90;;;;;;4952983;28;20499;-88
2022/11/12 10:36:16;;;;;;;0.20;0.20;;;11.00;99.90;;;;;;4947769;28;20195;-87
2022/11/12 10:38:44;;;;;;;0.20;0.20;;;11.00;99.90;;;;;;4932217;29;20235;-86
2022/11/12 10:41:23;;;;;;;0.20;0.20;;;11.00;99.90;;;;;;4946458;28;20462;-87
2022/11/12 10:43:57;;;;;;;0.20;0.20;;;11.10;99.90;;;;;;4956099;28;20486;-89
2022/11/12 10:46:28;;;;;;;0.20;0.20;;;11.20;99.90;;;;;;4942073;28;20454;-88
2022/11/12 10:49:00;;;;;;;0.20;0.20;;;11.30;99.90;;;;;;4952848;28;20462;-89
2022/11/12 10:51:32;;;;;;;0.20;0.20;;;11.20;99.90;;;;;;4951335;28;20557;-89
2022/11/12 10:54:17;;;;;;;0.20;0.20;;;11.30;99.90;;;;;;4942026;28;20489;-88
2022/11/12 10:56:44;;;;;;;0.20;0.20;;;11.40;99.90;;;;;;4955674;28;20526;-89
2022/11/12 10:59:16;;;;;;;0.20;0.20;;;11.40;99.90;;;;;;4956187;28;20460;-89
2022/11/12 11:01:44;;;;;;;0.20;0.20;;;11.40;99.90;;;;;;4951143;28;20450;-90
2022/11/12 11:04:32;;;;;;;0.10;0.10;;;11.50;99.90;;;;;;4955397;28;20513;-91
2022/11/12 11:07:23;;;;;;;0.10;0.10;;;11.60;99.90;;;;;;4953027;28;20482;-88
2022/11/12 11:10:21;;;;;;;0.10;0.10;;;11.60;99.90;;;;;;4942401;28;20458;-90
2022/11/12 11:12:46;;;;;;;0.20;0.20;;;11.70;99.90;;;;;;4940633;28;20454;-86
2022/11/12 11:15:20;;;;;;;0.20;0.20;;;11.80;99.90;;;;;;4943984;28;20443;-86
2022/11/12 11:17:46;;;;;;;0.10;0.10;;;12.00;99.90;;;;;;4947912;28;20681;-87
2022/11/12 11:20:23;;;;;;;0.20;0.20;;;12.20;99.90;;;;;;4949404;28;20541;-89
2022/11/12 11:23:20;;;;;;;0.17;0.17;;;12.30;99.90;;;;;;4945968;28;20305;-86
2022/11/12 11:25:50;;;;;;;0.10;0.10;;;12.50;99.90;;;;;;4949053;28;20511;-87
2022/11/12 11:28:36;;;;;;;0.20;0.20;;;12.60;99.90;;;;;;4954632;28;20454;-87
2022/11/12 11:31:41;;;;;;;0.10;0.10;;;12.80;99.90;;;;;;4939718;28;20981;-86
2022/11/12 11:34:19;;;;;;;0.10;0.10;;;13.00;99.90;;;;;;4943409;28;20464;-85
2022/11/12 11:37:11;;;;;;;0.10;0.10;;;14.10;99.90;;;;;;4939948;28;20991;-88
2022/11/12 11:40:08;;;;;;;0.10;0.10;;;14.90;99.90;;;;;;4954166;28;20926;-89
2022/11/12 11:43:03;;;;;;;0.10;0.10;;;15.40;99.90;;;;;;4944091;28;20517;-87
2022/11/12 11:45:53;;;;;;;0.10;0.10;;;15.60;99.90;;;;;;4953740;28;20449;-88
2022/11/12 11:48:21;;;;;;;0.10;0.10;;;15.90;99.90;;;;;;4954789;28;20824;-87
2022/11/12 11:51:12;;;;;;;0.10;0.10;;;16.30;99.90;;;;;;4953885;28;20482;-93
2022/11/12 11:53:59;;;;;;;0.10;0.10;;;16.30;99.90;;;;;;4954629;28;20508;-91
2022/11/12 11:56:35;;;;;;;0.10;0.10;;;16.70;99.90;;;;;;4947119;28;20515;-89
2022/11/12 11:59:30;;;;;;;0.10;0.00;;;17.30;99.90;;;;;;4949725;28;20883;-91
2022/11/12 12:01:58;;;;;;;0.10;0.00;;;17.70;99.90;;;;;;4937042;28;20478;-90
2022/11/12 12:04:42;;;;;;;0.10;0.07;;;17.50;99.90;;;;;;4941993;28;20507;-92
2022/11/12 12:07:16;;;;;;;0.10;0.00;;;17.50;99.90;;;;;;4958244;28;20459;-91
2022/11/12 12:09:46;;;;;;;0.10;0.00;;;17.00;99.90;;;;;;4947054;28;20620;-90
2022/11/12 12:12:41;;;;;;;0.10;0.00;;;17.80;99.90;;;;;;4975309;28;20441;-91
2022/11/12 12:15:30;;;;;;;0.10;0.00;;;17.90;99.90;;;;;;4980063;28;20449;-91
2022/11/12 12:18:03;;;;;;;0.10;0.00;;;18.20;99.90;;;;;;4939003;28;20445;-90
2022/11/12 12:20:39;;;;;;;0.10;0.00;;;18.30;99.90;;;;;;4948172;29;20453;-90
2022/11/12 12:23:10;;;;;;;0.10;0.00;;;17.80;99.90;;;;;;4951983;28;20497;-92
2022/11/12 12:25:40;;;;;;;0.10;0.00;;;16.70;99.90;;;;;;4946025;29;20447;-93
2022/11/12 12:28:20;;;;;;;0.10;0.10;;;16.10;99.90;;;;;;4959356;28;20453;-90
2022/11/12 12:30:49;;;;;;;0.10;0.10;;;16.40;99.90;;;;;;4947236;29;20803;-90
2022/11/12 12:33:29;;;;;;;0.10;0.00;;;17.70;99.90;;;;;;4945060;28;20429;-92
2022/11/12 12:36:04;;;;;;;0.10;0.00;;;17.60;99.90;;;;;;4957842;28;20478;-89
2022/11/12 12:38:53;;;;;;;0.10;0.00;;;17.60;99.90;;;;;;4950997;28;20473;-90
2022/11/12 12:41:30;;;;;;;0.10;0.00;;;18.60;99.90;;;;;;4956460;28;20504;-88
2022/11/12 12:44:02;;;;;;;0.10;0.00;;;18.60;99.90;;;;;;4949406;29;20844;-90
2022/11/12 12:46:29;;;;;;;0.10;0.10;;;18.60;99.90;;;;;;4948242;28;20451;-90
2022/11/12 12:48:58;;;;;;;0.10;0.00;;;18.70;99.90;;;;;;4942666;28;20515;-91
2022/11/12 12:51:27;;;;;;;0.10;0.00;;;19.50;99.90;;;;;;4952188;28;20442;-89
2022/11/12 12:53:52;;;;;;;0.10;0.00;;;20.40;99.90;;;;;;4957433;28;20450;-88
2022/11/12 12:56:42;;;;;;;0.10;0.00;;;19.90;99.90;;;;;;4947043;28;20492;-93
2022/11/12 12:59:18;;;;;;;0.10;0.00;;;19.60;99.90;;;;;;4949617;28;20925;-89
2022/11/12 13:01:56;;;;;;;0.10;0.00;;;19.50;99.90;;;;;;4952029;28;20514;-88
2022/11/12 13:04:49;;;;;;;0.10;0.00;;;19.90;99.90;;;;;;4948038;28;20448;-90
2022/11/12 13:07:14;;;;;;;0.10;0.00;;;20.60;99.90;;;;;;4952882;28;20546;-91
2022/11/12 13:09:40;;;;;;;0.10;0.00;;;20.80;99.90;;;;;;4953777;28;20545;-90
2022/11/12 13:14:33;;;;;;;0.10;0.00;;;20.40;99.90;;;;;;4946060;28;20200;-89
2022/11/12 13:17:03;;;;;;;0.10;0.00;;;18.90;99.90;;;;;;4944492;28;20819;-90
2022/11/12 13:19:31;;;;;;;0.10;0.10;;;17.90;99.90;;;;;;4963806;28;20279;-87
2022/11/12 13:22:15;;;;;;;0.10;0.00;;;17.00;99.90;;;;;;4946218;28;20474;-88
2022/11/12 13:25:09;;;;;;;0.00;0.00;;;16.10;99.90;;;;;;4951780;28;20454;-91
2022/11/12 13:27:44;;;;;;;0.00;0.00;;;15.80;99.90;;;;;;4948323;29;20469;-90